Tupaciguara, Brazil
Current Conditions -  °F | °C
As of 2:35 AM on Monday 22 Dec 2014 (Local Time) from SBUL Reporting Station
Broken Clouds Broken Clouds  
Wind Chill: 70°   Ceiling: 400
Heat Index: 70°   Visibility: 6mi
Dew Point: 66°   Wind: 5mph
Humidity: 88%   Direction: 330°NNW
Pressure: 30.03"   Gusts: NA
Location:  18.59°S, 48.7°W
Report Text: SBUL 220435Z 33004KT 9999 BKN004 SCT030 21/19 Q1017
Loading
Personal Weather Stations






























Interactive Weather Map New forecast layout! Learn more

10-Day Weather Forecast

Advertisements
Track Severe Weather on mobile